sensor_id;sensor_type;location;lat;lon;timestamp;pressure;altitude;pressure_sealevel;temperature;humidity
29467;BME280;60968;37.490;-122.288;2023-01-26T00:02:34;99769.19;;;15.13;38.74
29467;BME280;60968;37.490;-122.288;2023-01-26T00:05:37;99774.66;;;15.04;39.33
29467;BME280;60968;37.490;-122.288;2023-01-26T00:08:40;99772.03;;;15.04;38.09
29467;BME280;60968;37.490;-122.288;2023-01-26T00:11:41;99780.88;;;15.00;39.38
29467;BME280;60968;37.490;-122.288;2023-01-26T00:14:43;99778.66;;;14.78;40.28
29467;BME280;60968;37.490;-122.288;2023-01-26T00:17:44;99781.31;;;14.75;39.14
29467;BME280;60968;37.490;-122.288;2023-01-26T00:20:45;99779.34;;;14.86;38.02
29467;BME280;60968;37.490;-122.288;2023-01-26T00:23:48;99762.63;;;14.94;37.46
29467;BME280;60968;37.490;-122.288;2023-01-26T00:26:49;99767.03;;;14.91;38.13
29467;BME280;60968;37.490;-122.288;2023-01-26T00:29:51;99772.94;;;14.54;40.58
29467;BME280;60968;37.490;-122.288;2023-01-26T00:32:52;99768.06;;;14.33;42.01
29467;BME280;60968;37.490;-122.288;2023-01-26T00:35:53;99778.06;;;14.12;42.04
29467;BME280;60968;37.490;-122.288;2023-01-26T00:38:55;99772.25;;;13.92;43.89
29467;BME280;60968;37.490;-122.288;2023-01-26T00:41:56;99779.50;;;13.72;45.57
29467;BME280;60968;37.490;-122.288;2023-01-26T00:44:57;99781.53;;;13.53;45.38
29467;BME280;60968;37.490;-122.288;2023-01-26T00:47:58;99771.34;;;13.35;46.28
29467;BME280;60968;37.490;-122.288;2023-01-26T00:51:00;99765.38;;;13.19;46.09
29467;BME280;60968;37.490;-122.288;2023-01-26T00:54:00;99776.84;;;13.09;47.30
29467;BME280;60968;37.490;-122.288;2023-01-26T00:57:01;99771.78;;;12.95;48.45
29467;BME280;60968;37.490;-122.288;2023-01-26T01:00:04;99777.16;;;12.82;48.12
29467;BME280;60968;37.490;-122.288;2023-01-26T01:03:05;99779.91;;;12.72;50.03
29467;BME280;60968;37.490;-122.288;2023-01-26T01:09:50;99781.91;;;12.45;50.02
29467;BME280;60968;37.490;-122.288;2023-01-26T01:12:51;99785.44;;;12.36;49.43
29467;BME280;60968;37.490;-122.288;2023-01-26T01:15:52;99787.28;;;12.29;50.02
29467;BME280;60968;37.490;-122.288;2023-01-26T01:18:56;99788.19;;;12.25;51.29
29467;BME280;60968;37.490;-122.288;2023-01-26T01:21:57;99793.44;;;12.21;49.37
29467;BME280;60968;37.490;-122.288;2023-01-26T01:24:58;99793.47;;;12.16;48.81
29467;BME280;60968;37.490;-122.288;2023-01-26T01:28:00;99796.13;;;12.11;49.68
29467;BME280;60968;37.490;-122.288;2023-01-26T01:31:05;99789.25;;;12.03;50.10
29467;BME280;60968;37.490;-122.288;2023-01-26T01:34:06;99783.19;;;11.90;50.36
29467;BME280;60968;37.490;-122.288;2023-01-26T01:37:06;99782.38;;;11.80;49.24
29467;BME280;60968;37.490;-122.288;2023-01-26T01:40:11;99784.19;;;11.73;50.07
29467;BME280;60968;37.490;-122.288;2023-01-26T01:43:13;99780.75;;;11.65;49.97
29467;BME280;60968;37.490;-122.288;2023-01-26T01:46:32;99786.88;;;11.58;49.83
29467;BME280;60968;37.490;-122.288;2023-01-26T01:49:52;99783.44;;;11.49;49.45
29467;BME280;60968;37.490;-122.288;2023-01-26T01:52:54;99788.69;;;11.46;50.10
29467;BME280;60968;37.490;-122.288;2023-01-26T01:56:00;99789.56;;;11.44;50.68
29467;BME280;60968;37.490;-122.288;2023-01-26T01:59:03;99793.06;;;11.43;51.04
29467;BME280;60968;37.490;-122.288;2023-01-26T02:02:06;99790.44;;;11.41;50.08
29467;BME280;60968;37.490;-122.288;2023-01-26T02:05:15;99782.63;;;11.43;51.00
29467;BME280;60968;37.490;-122.288;2023-01-26T02:08:35;99782.63;;;11.40;51.94
29467;BME280;60968;37.490;-122.288;2023-01-26T02:11:40;99792.19;;;11.38;51.89
29467;BME280;60968;37.490;-122.288;2023-01-26T02:14:42;99796.53;;;11.39;51.25
29467;BME280;60968;37.490;-122.288;2023-01-26T02:17:43;99813.06;;;11.38;51.86
29467;BME280;60968;37.490;-122.288;2023-01-26T02:20:46;99805.25;;;11.35;52.39
29467;BME280;60968;37.490;-122.288;2023-01-26T02:24:04;99800.91;;;11.32;51.07
29467;BME280;60968;37.490;-122.288;2023-01-26T02:27:07;99800.94;;;11.33;51.75
29467;BME280;60968;37.490;-122.288;2023-01-26T02:30:09;99806.16;;;11.33;51.16
29467;BME280;60968;37.490;-122.288;2023-01-26T02:33:22;99813.09;;;11.33;51.89
29467;BME280;60968;37.490;-122.288;2023-01-26T02:36:27;99805.25;;;11.35;51.65
29467;BME280;60968;37.490;-122.288;2023-01-26T02:42:35;99808.75;;;11.32;53.76
29467;BME280;60968;37.490;-122.288;2023-01-26T02:45:37;99816.56;;;11.32;53.65
29467;BME280;60968;37.490;-122.288;2023-01-26T02:48:39;99823.56;;;11.30;53.24
29467;BME280;60968;37.490;-122.288;2023-01-26T02:51:44;99830.50;;;11.31;53.01
29467;BME280;60968;37.490;-122.288;2023-01-26T02:54:45;99834.00;;;11.28;54.01
29467;BME280;60968;37.490;-122.288;2023-01-26T02:57:45;99830.53;;;11.25;53.15
29467;BME280;60968;37.490;-122.288;2023-01-26T03:00:47;99813.13;;;11.28;53.90
29467;BME280;60968;37.490;-122.288;2023-01-26T03:03:48;99821.81;;;11.30;53.59
29467;BME280;60968;37.490;-122.288;2023-01-26T03:06:50;99820.06;;;11.31;52.96
29467;BME280;60968;37.490;-122.288;2023-01-26T03:09:52;99830.50;;;11.26;51.91
29467;BME280;60968;37.490;-122.288;2023-01-26T03:12:53;99840.97;;;11.23;53.91
29467;BME280;60968;37.490;-122.288;2023-01-26T03:15:53;99839.25;;;11.18;54.16
29467;BME280;60968;37.490;-122.288;2023-01-26T03:18:54;99835.78;;;11.15;53.35
29467;BME280;60968;37.490;-122.288;2023-01-26T03:21:55;99836.66;;;11.13;54.76
29467;BME280;60968;37.490;-122.288;2023-01-26T03:24:56;99834.94;;;11.09;53.99
29467;BME280;60968;37.490;-122.288;2023-01-26T03:27:58;99836.69;;;11.04;54.47
29467;BME280;60968;37.490;-122.288;2023-01-26T03:30:59;99841.91;;;11.02;53.98
29467;BME280;60968;37.490;-122.288;2023-01-26T03:33:59;99840.16;;;10.99;53.81
29467;BME280;60968;37.490;-122.288;2023-01-26T03:37:00;99842.78;;;10.95;54.19
29467;BME280;60968;37.490;-122.288;2023-01-26T03:40:03;99845.41;;;10.92;54.37
29467;BME280;60968;37.490;-122.288;2023-01-26T03:43:08;99844.56;;;10.93;54.79
29467;BME280;60968;37.490;-122.288;2023-01-26T03:46:09;99848.91;;;10.88;54.92
29467;BME280;60968;37.490;-122.288;2023-01-26T03:49:09;99846.28;;;10.86;55.20
29467;BME280;60968;37.490;-122.288;2023-01-26T03:52:11;99848.91;;;10.85;54.52
29467;BME280;60968;37.490;-122.288;2023-01-26T03:55:12;99855.88;;;10.78;55.21
29467;BME280;60968;37.490;-122.288;2023-01-26T03:58:13;99851.53;;;10.72;54.47
29467;BME280;60968;37.490;-122.288;2023-01-26T04:01:14;99855.88;;;10.72;54.00
29467;BME280;60968;37.490;-122.288;2023-01-26T04:04:15;99861.09;;;10.75;54.55
29467;BME280;60968;37.490;-122.288;2023-01-26T04:07:16;99861.94;;;10.78;54.31
29467;BME280;60968;37.490;-122.288;2023-01-26T04:10:17;99852.38;;;10.80;54.45
29467;BME280;60968;37.490;-122.288;2023-01-26T04:13:19;99861.06;;;10.82;53.69
29467;BME280;60968;37.490;-122.288;2023-01-26T04:16:22;99861.06;;;10.84;53.59
29467;BME280;60968;37.490;-122.288;2023-01-26T04:19:23;99861.06;;;10.89;52.78
29467;BME280;60968;37.490;-122.288;2023-01-26T04:22:24;99863.66;;;10.92;53.64
29467;BME280;60968;37.490;-122.288;2023-01-26T04:25:25;99868.00;;;10.90;52.39
29467;BME280;60968;37.490;-122.288;2023-01-26T04:28:26;99871.50;;;10.89;52.99
29467;BME280;60968;37.490;-122.288;2023-01-26T04:31:27;99869.59;;;11.45;48.36
29467;BME280;60968;37.490;-122.288;2023-01-26T04:34:27;99868.56;;;11.83;47.20
29467;BME280;60968;37.490;-122.288;2023-01-26T04:37:28;99866.75;;;11.96;46.51
29467;BME280;60968;37.490;-122.288;2023-01-26T04:40:29;99867.53;;;12.12;45.50
29467;BME280;60968;37.490;-122.288;2023-01-26T04:43:30;99863.13;;;12.20;45.98
29467;BME280;60968;37.490;-122.288;2023-01-26T04:46:32;99863.31;;;11.78;49.44
29467;BME280;60968;37.490;-122.288;2023-01-26T04:49:33;99866.13;;;11.43;51.15
29467;BME280;60968;37.490;-122.288;2023-01-26T04:52:34;99860.84;;;11.57;49.27
29467;BME280;60968;37.490;-122.288;2023-01-26T04:55:34;99860.88;;;11.44;50.69
29467;BME280;60968;37.490;-122.288;2023-01-26T04:58:44;99866.16;;;11.35;50.87
29467;BME280;60968;37.490;-122.288;2023-01-26T05:01:45;99868.78;;;11.26;50.49
29467;BME280;60968;37.490;-122.288;2023-01-26T05:04:46;99859.22;;;11.31;49.83
29467;BME280;60968;37.490;-122.288;2023-01-26T05:07:47;99859.19;;;11.34;49.53
29467;BME280;60968;37.490;-122.288;2023-01-26T05:10:48;99869.66;;;11.25;50.20
29467;BME280;60968;37.490;-122.288;2023-01-26T05:13:48;99867.03;;;11.26;50.31
29467;BME280;60968;37.490;-122.288;2023-01-26T05:16:50;99876.59;;;11.30;48.78
29467;BME280;60968;37.490;-122.288;2023-01-26T05:19:51;99866.16;;;11.35;49.53
29467;BME280;60968;37.490;-122.288;2023-01-26T05:22:53;99867.94;;;11.25;49.92
29467;BME280;60968;37.490;-122.288;2023-01-26T05:25:55;99871.41;;;11.24;49.50
29467;BME280;60968;37.490;-122.288;2023-01-26T05:28:56;99876.59;;;11.33;50.57
29467;BME280;60968;37.490;-122.288;2023-01-26T05:31:57;99873.16;;;11.24;50.63
29467;BME280;60968;37.490;-122.288;2023-01-26T05:34:59;99877.53;;;11.09;52.00
29467;BME280;60968;37.490;-122.288;2023-01-26T05:38:01;99875.81;;;10.99;51.55
29467;BME280;60968;37.490;-122.288;2023-01-26T05:41:01;99879.28;;;10.99;50.91
29467;BME280;60968;37.490;-122.288;2023-01-26T05:44:04;99873.19;;;11.05;50.47
29467;BME280;60968;37.490;-122.288;2023-01-26T05:47:05;99875.75;;;11.21;50.65
29467;BME280;60968;37.490;-122.288;2023-01-26T05:50:07;99873.09;;;11.33;49.62
29467;BME280;60968;37.490;-122.288;2023-01-26T05:53:08;99870.47;;;11.45;47.85
29467;BME280;60968;37.490;-122.288;2023-01-26T05:59:14;99879.22;;;11.35;48.97
29467;BME280;60968;37.490;-122.288;2023-01-26T06:02:15;99881.84;;;11.24;50.57
29467;BME280;60968;37.490;-122.288;2023-01-26T06:05:16;99879.28;;;11.06;50.87
29467;BME280;60968;37.490;-122.288;2023-01-26T06:08:17;99888.84;;;10.88;51.20
29467;BME280;60968;37.490;-122.288;2023-01-26T06:11:18;99887.16;;;10.73;52.10
29467;BME280;60968;37.490;-122.288;2023-01-26T06:14:19;99884.56;;;10.61;52.48
29467;BME280;60968;37.490;-122.288;2023-01-26T06:17:20;99886.28;;;10.50;53.68
29467;BME280;60968;37.490;-122.288;2023-01-26T06:20:21;99890.63;;;10.40;53.85
29467;BME280;60968;37.490;-122.288;2023-01-26T06:23:23;99887.13;;;10.53;53.78
29467;BME280;60968;37.490;-122.288;2023-01-26T06:26:24;99883.69;;;10.65;52.10
29467;BME280;60968;37.490;-122.288;2023-01-26T06:29:25;99894.94;;;10.86;50.83
29467;BME280;60968;37.490;-122.288;2023-01-26T06:32:26;99894.06;;;11.01;49.26
29467;BME280;60968;37.490;-122.288;2023-01-26T06:35:26;99897.56;;;11.03;50.00
29467;BME280;60968;37.490;-122.288;2023-01-26T06:38:29;99895.75;;;11.22;49.92
29467;BME280;60968;37.490;-122.288;2023-01-26T06:41:30;99897.53;;;11.18;50.09
29467;BME280;60968;37.490;-122.288;2023-01-26T06:44:30;99897.56;;;10.90;51.60
29467;BME280;60968;37.490;-122.288;2023-01-26T06:47:31;99903.66;;;10.83;50.94
29467;BME280;60968;37.490;-122.288;2023-01-26T06:50:34;99911.47;;;10.69;52.41
29467;BME280;60968;37.490;-122.288;2023-01-26T06:53:42;99911.47;;;10.63;52.58
29467;BME280;60968;37.490;-122.288;2023-01-26T06:56:43;99900.19;;;10.52;53.07
29467;BME280;60968;37.490;-122.288;2023-01-26T06:59:44;99894.97;;;10.44;53.75
29467;BME280;60968;37.490;-122.288;2023-01-26T07:02:45;99900.19;;;10.52;53.01
29467;BME280;60968;37.490;-122.288;2023-01-26T07:05:46;99898.44;;;10.60;51.93
29467;BME280;60968;37.490;-122.288;2023-01-26T07:08:46;99897.56;;;10.64;52.42
29467;BME280;60968;37.490;-122.288;2023-01-26T07:11:47;99904.50;;;10.59;51.96
29467;BME280;60968;37.490;-122.288;2023-01-26T07:14:48;99910.63;;;10.55;52.02
29467;BME280;60968;37.490;-122.288;2023-01-26T07:17:49;99914.06;;;10.44;52.46
29467;BME280;60968;37.490;-122.288;2023-01-26T07:24:11;99924.50;;;10.43;52.62
29467;BME280;60968;37.490;-122.288;2023-01-26T07:27:11;99920.13;;;10.33;53.24
29467;BME280;60968;37.490;-122.288;2023-01-26T07:30:12;99929.66;;;10.23;53.19
29467;BME280;60968;37.490;-122.288;2023-01-26T07:33:14;99929.66;;;10.29;51.80
29467;BME280;60968;37.490;-122.288;2023-01-26T07:36:15;99916.63;;;10.34;52.66
29467;BME280;60968;37.490;-122.288;2023-01-26T07:39:16;99915.78;;;10.28;51.98
29467;BME280;60968;37.490;-122.288;2023-01-26T07:42:16;99920.97;;;10.28;53.34
29467;BME280;60968;37.490;-122.288;2023-01-26T07:45:17;99925.28;;;10.25;52.06
29467;BME280;60968;37.490;-122.288;2023-01-26T07:48:22;99922.69;;;10.26;52.52
29467;BME280;60968;37.490;-122.288;2023-01-26T07:51:23;99927.09;;;10.38;51.92
29467;BME280;60968;37.490;-122.288;2023-01-26T07:54:24;99919.31;;;10.69;49.28
29467;BME280;60968;37.490;-122.288;2023-01-26T07:57:25;99916.69;;;10.74;48.31
29467;BME280;60968;37.490;-122.288;2023-01-26T08:00:28;99915.78;;;10.86;47.85
29467;BME280;60968;37.490;-122.288;2023-01-26T08:03:28;99918.41;;;10.82;50.12
29467;BME280;60968;37.490;-122.288;2023-01-26T08:06:29;99922.75;;;10.71;49.37
29467;BME280;60968;37.490;-122.288;2023-01-26T08:09:33;99908.84;;;10.94;45.93
29467;BME280;60968;37.490;-122.288;2023-01-26T08:12:34;99911.41;;;11.28;45.39
29467;BME280;60968;37.490;-122.288;2023-01-26T08:15:35;99922.63;;;11.47;44.31
29467;BME280;60968;37.490;-122.288;2023-01-26T08:18:36;99913.97;;;11.46;44.16
29467;BME280;60968;37.490;-122.288;2023-01-26T08:21:37;99917.47;;;11.33;45.98
29467;BME280;60968;37.490;-122.288;2023-01-26T08:24:38;99920.09;;;11.27;45.51
29467;BME280;60968;37.490;-122.288;2023-01-26T08:27:39;99926.19;;;11.26;45.74
29467;BME280;60968;37.490;-122.288;2023-01-26T08:30:40;99927.91;;;11.28;45.32
29467;BME280;60968;37.490;-122.288;2023-01-26T08:33:41;99930.53;;;11.16;47.34
29467;BME280;60968;37.490;-122.288;2023-01-26T08:36:42;99930.56;;;11.05;47.45
29467;BME280;60968;37.490;-122.288;2023-01-26T08:39:43;99927.94;;;11.14;46.35
29467;BME280;60968;37.490;-122.288;2023-01-26T08:42:44;99929.69;;;11.06;45.99
29467;BME280;60968;37.490;-122.288;2023-01-26T08:45:46;99927.97;;;11.02;46.59
29467;BME280;60968;37.490;-122.288;2023-01-26T08:48:47;99927.13;;;10.86;48.97
29467;BME280;60968;37.490;-122.288;2023-01-26T08:51:48;99930.59;;;10.80;47.52
29467;BME280;60968;37.490;-122.288;2023-01-26T08:54:49;99933.19;;;10.68;48.50
29467;BME280;60968;37.490;-122.288;2023-01-26T08:57:51;99936.66;;;10.45;50.20
29467;BME280;60968;37.490;-122.288;2023-01-26T09:00:52;99936.59;;;10.30;51.23
29467;BME280;60968;37.490;-122.288;2023-01-26T09:03:53;99939.19;;;10.13;51.76
29467;BME280;60968;37.490;-122.288;2023-01-26T09:10:52;99939.19;;;10.13;51.19
29467;BME280;60968;37.490;-122.288;2023-01-26T09:13:53;99945.25;;;10.10;51.46
29467;BME280;60968;37.490;-122.288;2023-01-26T09:16:54;99938.28;;;10.09;50.35
29467;BME280;60968;37.490;-122.288;2023-01-26T09:19:55;99936.56;;;10.08;52.27
29467;BME280;60968;37.490;-122.288;2023-01-26T09:22:56;99941.72;;;9.96;51.24
29467;BME280;60968;37.490;-122.288;2023-01-26T09:25:57;99937.38;;;9.89;51.93
29467;BME280;60968;37.490;-122.288;2023-01-26T09:28:58;99936.47;;;9.84;53.32
29467;BME280;60968;37.490;-122.288;2023-01-26T09:31:59;99932.06;;;9.70;54.00
29467;BME280;60968;37.490;-122.288;2023-01-26T09:35:01;99926.00;;;9.62;52.95
29467;BME280;60968;37.490;-122.288;2023-01-26T09:38:02;99935.50;;;9.61;54.71
29467;BME280;60968;37.490;-122.288;2023-01-26T09:48:26;99946.03;;;9.89;50.37
29467;BME280;60968;37.490;-122.288;2023-01-26T09:51:52;99936.47;;;9.87;50.47
29467;BME280;60968;37.490;-122.288;2023-01-26T09:54:57;99941.69;;;9.81;52.65
29467;BME280;60968;37.490;-122.288;2023-01-26T09:58:02;99939.88;;;9.70;52.58
29467;BME280;60968;37.490;-122.288;2023-01-26T10:01:11;99945.06;;;9.58;53.53
29467;BME280;60968;37.490;-122.288;2023-01-26T10:04:44;99944.97;;;9.46;52.60
29467;BME280;60968;37.490;-122.288;2023-01-26T10:07:46;99944.94;;;9.39;53.17
29467;BME280;60968;37.490;-122.288;2023-01-26T10:10:52;99947.53;;;9.36;53.70
29467;BME280;60968;37.490;-122.288;2023-01-26T10:14:00;99941.47;;;9.39;53.82
29467;BME280;60968;37.490;-122.288;2023-01-26T10:17:05;99938.03;;;9.41;52.95
29467;BME280;60968;37.490;-122.288;2023-01-26T10:23:48;99943.16;;;9.27;54.42
29467;BME280;60968;37.490;-122.288;2023-01-26T10:26:52;99943.97;;;9.20;54.01
29467;BME280;60968;37.490;-122.288;2023-01-26T10:29:56;99947.59;;;9.50;50.73
29467;BME280;60968;37.490;-122.288;2023-01-26T10:32:56;99941.59;;;9.62;51.54
29467;BME280;60968;37.490;-122.288;2023-01-26T10:40:05;99948.63;;;9.86;50.05
29467;BME280;60968;37.490;-122.288;2023-01-26T10:43:16;99949.53;;;9.99;47.96
29467;BME280;60968;37.490;-122.288;2023-01-26T10:46:40;99951.31;;;10.06;47.94
29467;BME280;60968;37.490;-122.288;2023-01-26T10:49:42;99959.06;;;9.94;50.61
29467;BME280;60968;37.490;-122.288;2023-01-26T10:53:03;99961.66;;;9.88;49.09
29467;BME280;60968;37.490;-122.288;2023-01-26T10:56:10;99963.44;;;10.01;49.10
29467;BME280;60968;37.490;-122.288;2023-01-26T11:02:36;99973.81;;;9.92;50.36
29467;BME280;60968;37.490;-122.288;2023-01-26T11:05:38;99962.56;;;10.02;48.30
29467;BME280;60968;37.490;-122.288;2023-01-26T11:08:39;99953.97;;;10.33;47.41
29467;BME280;60968;37.490;-122.288;2023-01-26T11:11:40;99954.00;;;10.40;46.92
29467;BME280;60968;37.490;-122.288;2023-01-26T11:15:02;99930.59;;;10.46;45.98
29467;BME280;60968;37.490;-122.288;2023-01-26T11:18:14;99930.59;;;10.51;45.78
29467;BME280;60968;37.490;-122.288;2023-01-26T11:21:27;99933.19;;;10.57;45.83
29467;BME280;60968;37.490;-122.288;2023-01-26T11:41:32;99957.81;;;9.18;53.00
29467;BME280;60968;37.490;-122.288;2023-01-26T12:05:27;99967.72;;;8.54;56.65
29467;BME280;60968;37.490;-122.288;2023-01-26T12:08:38;99966.00;;;8.56;56.40
29467;BME280;60968;37.490;-122.288;2023-01-26T12:15:12;99979.00;;;8.58;56.27
29467;BME280;60968;37.490;-122.288;2023-01-26T12:18:26;99978.13;;;8.56;56.84
29467;BME280;60968;37.490;-122.288;2023-01-26T12:21:31;99981.53;;;8.52;55.54
29467;BME280;60968;37.490;-122.288;2023-01-26T12:24:40;99985.97;;;8.62;54.51
29467;BME280;60968;37.490;-122.288;2023-01-26T12:27:50;99990.38;;;8.68;53.21
29467;BME280;60968;37.490;-122.288;2023-01-26T12:34:17;99978.00;;;9.59;48.80
29467;BME280;60968;37.490;-122.288;2023-01-26T12:37:54;99976.38;;;9.83;48.35
29467;BME280;60968;37.490;-122.288;2023-01-26T12:44:36;99990.38;;;10.09;47.31
29467;BME280;60968;37.490;-122.288;2023-01-26T12:47:43;99992.97;;;10.11;47.32
29467;BME280;60968;37.490;-122.288;2023-01-26T12:51:05;99988.59;;;9.94;49.45
29467;BME280;60968;37.490;-122.288;2023-01-26T12:57:34;100000.53;;;9.52;52.18
29467;BME280;60968;37.490;-122.288;2023-01-26T13:00:38;100010.88;;;9.44;50.94
29467;BME280;60968;37.490;-122.288;2023-01-26T13:03:44;100007.41;;;9.42;50.99
29467;BME280;60968;37.490;-122.288;2023-01-26T13:07:31;100008.28;;;9.44;51.44
29467;BME280;60968;37.490;-122.288;2023-01-26T13:10:48;100016.06;;;9.41;50.63
29467;BME280;60968;37.490;-122.288;2023-01-26T13:13:56;100006.50;;;9.42;50.72
29467;BME280;60968;37.490;-122.288;2023-01-26T13:20:22;100022.09;;;9.36;51.18
29467;BME280;60968;37.490;-122.288;2023-01-26T13:23:40;100019.41;;;9.25;52.32
29467;BME280;60968;37.490;-122.288;2023-01-26T13:26:47;100020.31;;;9.30;51.39
29467;BME280;60968;37.490;-122.288;2023-01-26T13:29:52;100023.88;;;9.41;49.25
29467;BME280;60968;37.490;-122.288;2023-01-26T13:36:35;100037.81;;;9.51;49.47
29467;BME280;60968;37.490;-122.288;2023-01-26T13:39:44;100047.25;;;9.37;51.29
29467;BME280;60968;37.490;-122.288;2023-01-26T13:43:21;100036.78;;;9.32;49.65
29467;BME280;60968;37.490;-122.288;2023-01-26T13:46:29;100047.25;;;9.37;50.96
29467;BME280;60968;37.490;-122.288;2023-01-26T13:49:36;100060.16;;;9.24;52.10
29467;BME280;60968;37.490;-122.288;2023-01-26T13:52:41;100050.53;;;9.14;51.19
29467;BME280;60968;37.490;-122.288;2023-01-26T13:55:43;100059.22;;;9.18;50.12
29467;BME280;60968;37.490;-122.288;2023-01-26T13:58:44;100066.41;;;9.47;48.76
29467;BME280;60968;37.490;-122.288;2023-01-26T14:01:51;100072.56;;;9.63;48.22
29467;BME280;60968;37.490;-122.288;2023-01-26T14:04:53;100081.28;;;9.69;47.84
29467;BME280;60968;37.490;-122.288;2023-01-26T14:07:55;100087.38;;;9.74;47.84
29467;BME280;60968;37.490;-122.288;2023-01-26T14:10:56;100081.25;;;9.65;48.56
29467;BME280;60968;37.490;-122.288;2023-01-26T14:13:59;100078.56;;;9.51;48.82
29467;BME280;60968;37.490;-122.288;2023-01-26T14:17:22;100082.91;;;9.55;48.40
29467;BME280;60968;37.490;-122.288;2023-01-26T14:20:35;100074.34;;;9.67;47.99
29467;BME280;60968;37.490;-122.288;2023-01-26T14:23:36;100086.53;;;9.74;47.97
29467;BME280;60968;37.490;-122.288;2023-01-26T14:26:39;100088.31;;;9.86;47.23
29467;BME280;60968;37.490;-122.288;2023-01-26T14:29:41;100087.47;;;9.85;47.71
29467;BME280;60968;37.490;-122.288;2023-01-26T14:32:43;100092.66;;;9.87;47.51
29467;BME280;60968;37.490;-122.288;2023-01-26T14:35:57;100105.66;;;9.81;47.73
29467;BME280;60968;37.490;-122.288;2023-01-26T14:38:58;100097.78;;;9.73;48.08
29467;BME280;60968;37.490;-122.288;2023-01-26T14:41:59;100105.59;;;9.71;47.90
29467;BME280;60968;37.490;-122.288;2023-01-26T14:45:01;100118.59;;;9.71;47.69
29467;BME280;60968;37.490;-122.288;2023-01-26T14:48:06;100120.38;;;9.75;47.90
29467;BME280;60968;37.490;-122.288;2023-01-26T14:51:24;100122.09;;;9.73;48.00
29467;BME280;60968;37.490;-122.288;2023-01-26T14:54:31;100127.25;;;9.70;47.72
29467;BME280;60968;37.490;-122.288;2023-01-26T14:57:33;100139.41;;;9.70;47.99
29467;BME280;60968;37.490;-122.288;2023-01-26T15:00:35;100150.59;;;9.56;48.98
29467;BME280;60968;37.490;-122.288;2023-01-26T15:03:37;100147.94;;;9.53;48.98
29467;BME280;60968;37.490;-122.288;2023-01-26T15:06:38;100152.19;;;9.42;49.56
29467;BME280;60968;37.490;-122.288;2023-01-26T15:09:39;100148.75;;;9.43;49.44
29467;BME280;60968;37.490;-122.288;2023-01-26T15:12:41;100146.97;;;9.39;49.55
29467;BME280;60968;37.490;-122.288;2023-01-26T15:15:44;100156.56;;;9.44;48.94
29467;BME280;60968;37.490;-122.288;2023-01-26T15:18:58;100157.47;;;9.48;49.12
29467;BME280;60968;37.490;-122.288;2023-01-26T15:22:01;100155.69;;;9.46;49.25
29467;BME280;60968;37.490;-122.288;2023-01-26T15:25:15;100169.53;;;9.38;51.19
29467;BME280;60968;37.490;-122.288;2023-01-26T15:28:19;100168.56;;;9.32;51.24
29467;BME280;60968;37.490;-122.288;2023-01-26T15:31:24;100176.41;;;9.33;51.00
29467;BME280;60968;37.490;-122.288;2023-01-26T15:34:38;100180.75;;;9.36;51.66
29467;BME280;60968;37.490;-122.288;2023-01-26T15:37:39;100176.44;;;9.39;51.15
29467;BME280;60968;37.490;-122.288;2023-01-26T15:40:40;100183.47;;;9.47;51.30
29467;BME280;60968;37.490;-122.288;2023-01-26T15:43:44;100174.84;;;9.54;51.26
29467;BME280;60968;37.490;-122.288;2023-01-26T15:46:45;100174.03;;;9.61;50.99
29467;BME280;60968;37.490;-122.288;2023-01-26T15:49:46;100181.00;;;9.62;50.98
29467;BME280;60968;37.490;-122.288;2023-01-26T15:52:47;100177.50;;;9.63;51.65
29467;BME280;60968;37.490;-122.288;2023-01-26T15:55:49;100176.69;;;9.67;51.13
29467;BME280;60968;37.490;-122.288;2023-01-26T15:58:50;100175.84;;;9.68;51.40
29467;BME280;60968;37.490;-122.288;2023-01-26T16:01:51;100188.88;;;9.71;52.54
29467;BME280;60968;37.490;-122.288;2023-01-26T16:04:52;100189.78;;;9.73;52.86
29467;BME280;60968;37.490;-122.288;2023-01-26T16:07:53;100196.69;;;9.74;52.35
29467;BME280;60968;37.490;-122.288;2023-01-26T16:10:54;100204.59;;;9.85;52.27
29467;BME280;60968;37.490;-122.288;2023-01-26T16:13:55;100209.00;;;9.97;51.47
29467;BME280;60968;37.490;-122.288;2023-01-26T16:16:56;100205.56;;;10.01;51.89
29467;BME280;60968;37.490;-122.288;2023-01-26T16:19:57;100209.06;;;10.03;52.30
29467;BME280;60968;37.490;-122.288;2023-01-26T16:22:59;100207.34;;;10.07;52.02
29467;BME280;60968;37.490;-122.288;2023-01-26T16:26:00;100213.47;;;10.13;51.96
29467;BME280;60968;37.490;-122.288;2023-01-26T16:29:01;100223.13;;;10.27;51.42
29467;BME280;60968;37.490;-122.288;2023-01-26T16:32:18;100228.47;;;10.42;50.69
29467;BME280;60968;37.490;-122.288;2023-01-26T16:35:26;100227.91;;;11.22;49.66
29467;BME280;60968;37.490;-122.288;2023-01-26T16:38:27;100228.31;;;14.63;41.29
29467;BME280;60968;37.490;-122.288;2023-01-26T16:41:30;100229.53;;;17.13;36.40
29467;BME280;60968;37.490;-122.288;2023-01-26T16:44:38;100223.03;;;18.38;34.69
29467;BME280;60968;37.490;-122.288;2023-01-26T16:47:39;100228.88;;;18.81;33.20
29467;BME280;60968;37.490;-122.288;2023-01-26T17:03:15;100235.97;;;20.72;30.35
29467;BME280;60968;37.490;-122.288;2023-01-26T17:06:19;100243.09;;;21.41;29.07
29467;BME280;60968;37.490;-122.288;2023-01-26T17:09:20;100237.31;;;21.08;28.73
29467;BME280;60968;37.490;-122.288;2023-01-26T17:12:20;100235.91;;;20.74;28.71
29467;BME280;60968;37.490;-122.288;2023-01-26T17:15:21;100227.66;;;19.52;30.35
29467;BME280;60968;37.490;-122.288;2023-01-26T17:18:23;100232.19;;;20.54;29.64
29467;BME280;60968;37.490;-122.288;2023-01-26T17:21:24;100237.69;;;21.67;28.41
29467;BME280;60968;37.490;-122.288;2023-01-26T17:24:26;100230.91;;;20.41;28.96